Time;durP1;ratioP1;P1;durP2;ratioP2;P2;SDS_P1;SDS_P2;PMS_P1;PMS_P2;Temp;Humidity;BMP_temperature;BMP_pressure;BME280_temperature;BME280_humidity;BME280_pressure;Samples;Min_cycle;Max_cycle;Signal;HPM_P1;HPM_P2
2023/12/09 00:01:05;;;;;;;63.70;31.50;;;;;;;-2.99;89.99;100891.94;107836;275;114143;-57
2023/12/09 00:03:44;;;;;;;65.00;30.60;;;;;;;-2.97;90.00;100886.92;107895;275;95337;-53
2023/12/09 00:06:16;;;;;;;63.80;31.40;;;;;;;-2.90;90.05;100890.20;107672;275;155753;-53
2023/12/09 00:08:52;;;;;;;47.10;24.20;;;;;;;-2.90;90.08;100885.23;107927;275;120400;-58
2023/12/09 00:11:29;;;;;;;52.60;24.60;;;;;;;-2.90;90.16;100880.86;107689;275;155248;-57
2023/12/09 00:14:04;;;;;;;47.70;23.10;;;;;;;-2.86;90.08;100880.61;107914;275;112538;-56
2023/12/09 00:16:37;;;;;;;45.90;21.80;;;;;;;-2.83;90.17;100875.98;107712;275;155499;-56
2023/12/09 00:19:15;;;;;;;47.80;23.10;;;;;;;-2.79;90.04;100867.45;107863;275;97071;-52
2023/12/09 00:21:49;;;;;;;41.30;20.20;;;;;;;-2.82;90.17;100866.42;107881;275;121012;-52
2023/12/09 00:24:27;;;;;;;46.10;20.90;;;;;;;-2.83;90.30;100863.68;107583;275;103860;-53
2023/12/09 00:26:59;;;;;;;45.60;23.50;;;;;;;-2.82;90.30;100859.89;107987;275;114760;-52
2023/12/09 00:29:31;;;;;;;44.40;21.60;;;;;;;-2.81;90.28;100856.15;107577;275;155258;-56
2023/12/09 00:32:07;;;;;;;43.20;22.30;;;;;;;-2.83;90.42;100855.94;107858;275;96605;-56
2023/12/09 00:34:43;;;;;;;47.50;22.20;;;;;;;-2.79;90.41;100855.48;107764;275;158773;-55
2023/12/09 00:37:26;;;;;;;46.20;23.60;;;;;;;-2.78;90.41;100849.80;107632;275;108239;-55
2023/12/09 00:40:08;;;;;;;37.30;19.20;;;;;;;-2.76;90.35;100847.23;107788;275;155582;-53
2023/12/09 00:42:50;;;;;;;41.40;19.90;;;;;;;-2.77;90.45;100846.23;107762;275;94487;-54
2023/12/09 00:45:24;;;;;;;44.90;22.60;;;;;;;-2.80;90.47;100851.34;107947;275;97000;-52
2023/12/09 00:48:03;;;;;;;45.30;22.60;;;;;;;-2.78;90.40;100854.90;107599;275;154901;-53
2023/12/09 00:50:38;;;;;;;37.20;19.40;;;;;;;-2.74;90.37;100855.02;107720;275;105395;-53
2023/12/09 00:53:19;;;;;;;40.20;20.10;;;;;;;-2.75;90.67;100850.84;107541;275;156383;-53
2023/12/09 00:55:54;;;;;;;37.90;18.20;;;;;;;-2.75;90.67;100840.26;107871;275;95498;-53
2023/12/09 00:58:28;;;;;;;44.20;21.60;;;;;;;-2.73;90.68;100840.33;107870;274;155943;-55
2023/12/09 01:01:15;;;;;;;43.20;19.50;;;;;;;-2.72;90.73;100843.41;107651;275;121324;-55
2023/12/09 01:03:51;;;;;;;39.20;19.30;;;;;;;-2.69;90.96;100841.50;107974;275;104561;-57
2023/12/09 01:06:24;;;;;;;48.30;22.90;;;;;;;-2.70;91.11;100841.86;107556;275;116344;-57
2023/12/09 01:09:04;;;;;;;45.80;21.40;;;;;;;-2.71;90.95;100842.63;107914;275;94711;-53
2023/12/09 01:11:41;;;;;;;46.70;21.10;;;;;;;-2.64;90.88;100836.42;107679;275;155808;-53
2023/12/09 01:14:17;;;;;;;42.10;20.50;;;;;;;-2.63;90.93;100833.68;107888;275;121054;-57
2023/12/09 01:16:56;;;;;;;42.50;19.40;;;;;;;-2.66;90.98;100829.81;107725;275;155637;-57
2023/12/09 01:19:34;;;;;;;41.70;19.20;;;;;;;-2.63;91.07;100829.83;107892;275;114771;-53
2023/12/09 01:22:10;;;;;;;39.80;19.40;;;;;;;-2.62;91.06;100824.80;107770;275;155520;-53
2023/12/09 01:24:51;;;;;;;47.50;23.40;;;;;;;-2.60;91.10;100828.20;107808;275;97637;-53
2023/12/09 01:27:29;;;;;;;43.70;21.00;;;;;;;-2.56;91.08;100830.95;107953;275;120569;-52
2023/12/09 01:30:11;;;;;;;55.00;24.70;;;;;;;-2.57;91.17;100834.37;107691;275;155088;-56
2023/12/09 01:32:50;;;;;;;44.40;23.30;;;;;;;-2.57;91.16;100832.45;107930;275;112900;-56
2023/12/09 01:35:27;;;;;;;53.10;24.60;;;;;;;-2.58;91.10;100827.71;107722;275;155405;-55
2023/12/09 01:38:03;;;;;;;49.70;24.50;;;;;;;-2.59;91.02;100826.38;107874;275;96524;-56
2023/12/09 01:40:36;;;;;;;55.00;26.30;;;;;;;-2.58;91.07;100829.80;107592;275;155509;-57
2023/12/09 01:43:18;;;;;;;51.90;23.60;;;;;;;-2.57;90.93;100825.89;107963;275;105436;-53
2023/12/09 01:45:54;;;;;;;55.40;25.10;;;;;;;-2.62;91.11;100824.48;107904;274;114573;-52
2023/12/09 01:48:26;;;;;;;55.30;27.00;;;;;;;-2.57;91.02;100827.98;107701;274;96777;-56
2023/12/09 01:51:03;;;;;;;58.60;27.20;;;;;;;-2.53;90.93;100832.90;107914;274;97413;-57
2023/12/09 01:53:39;;;;;;;54.80;26.50;;;;;;;-2.51;91.01;100829.41;107551;274;154997;-58
2023/12/09 01:56:15;;;;;;;55.10;25.60;;;;;;;-2.47;91.00;100823.88;107690;275;105868;-56
2023/12/09 01:58:46;;;;;;;62.20;28.70;;;;;;;-2.47;90.89;100827.05;107768;275;154214;-53
2023/12/09 02:01:24;;;;;;;62.20;28.60;;;;;;;-2.47;90.88;100830.73;107916;275;96625;-53
2023/12/09 02:03:56;;;;;;;62.80;27.30;;;;;;;-2.50;90.94;100831.27;107921;275;97400;-57
2023/12/09 02:06:34;;;;;;;63.30;28.80;;;;;;;-2.58;90.98;100828.63;107700;274;120767;-57
2023/12/09 02:09:11;;;;;;;62.70;26.70;;;;;;;-2.68;91.11;100820.09;107844;274;103466;-52
2023/12/09 02:11:54;;;;;;;;;;;;;;;-2.67;91.21;100818.30;107658;274;156530;-53
2023/12/09 02:14:34;;;;;;;66.80;28.10;;;;;;;-2.73;91.28;100812.27;107946;275;95762;-53
2023/12/09 02:17:15;;;;;;;60.10;27.90;;;;;;;-2.69;91.25;100811.67;107625;275;155168;-52
2023/12/09 02:19:51;;;;;;;66.90;28.80;;;;;;;-2.68;91.37;100811.60;107793;275;122055;-57
2023/12/09 02:22:34;;;;;;;60.60;26.50;;;;;;;-2.69;91.58;100800.57;107850;275;156471;-57
2023/12/09 02:25:09;;;;;;;65.70;28.30;;;;;;;-2.67;91.57;100797.11;107912;275;113839;-57
2023/12/09 02:27:54;;;;;;;64.30;28.70;;;;;;;-2.70;91.82;100799.23;107948;275;94950;-53
2023/12/09 02:30:35;;;;;;;63.90;26.80;;;;;;;-2.67;91.51;100800.43;107698;275;97485;-53
2023/12/09 02:33:10;;;;;;;64.10;28.80;;;;;;;-2.63;91.54;100813.09;107968;275;119552;-53
2023/12/09 02:35:54;;;;;;;67.40;26.70;;;;;;;-2.67;91.75;100808.41;107794;275;156438;-52
2023/12/09 02:38:28;;;;;;;67.30;28.50;;;;;;;-2.69;91.70;100801.08;107974;275;115195;-56
2023/12/09 02:41:02;;;;;;;67.30;30.20;;;;;;;-2.64;91.69;100801.14;107674;275;155301;-56
2023/12/09 02:43:41;;;;;;;67.80;28.50;;;;;;;-2.63;91.59;100799.33;107863;275;96919;-52
2023/12/09 02:46:16;;;;;;;61.60;26.10;;;;;;;-2.63;91.60;100804.23;107782;275;155455;-52
2023/12/09 02:48:55;;;;;;;68.40;27.60;;;;;;;-2.68;91.63;100801.77;107822;275;103625;-58
2023/12/09 02:51:34;;;;;;;70.30;28.70;;;;;;;-2.67;91.87;100802.58;107914;275;113694;-57
2023/12/09 02:54:09;;;;;;;67.40;28.60;;;;;;;-2.65;91.70;100794.86;107759;275;155619;-55
2023/12/09 02:56:43;;;;;;;58.80;26.10;;;;;;;-2.63;91.73;100799.13;107927;275;97540;-55
2023/12/09 02:59:17;;;;;;;64.70;28.70;;;;;;;-2.61;91.69;100804.65;107686;275;156179;-55
2023/12/09 03:01:52;;;;;;;67.30;27.70;;;;;;;-2.58;91.70;100810.81;107856;275;105575;-55
2023/12/09 03:04:38;;;;;;;70.90;28.80;;;;;;;-2.59;91.77;100811.94;107764;275;155377;-53
2023/12/09 03:07:19;;;;;;;74.30;28.40;;;;;;;-2.62;91.77;100808.39;107914;275;94895;-52
2023/12/09 03:09:53;;;;;;;65.00;28.10;;;;;;;-2.57;91.67;100805.11;107992;275;98277;-53
2023/12/09 03:12:30;;;;;;;69.40;27.90;;;;;;;-2.52;91.73;100808.13;107639;275;155055;-53
2023/12/09 03:15:08;;;;;;;66.40;26.20;;;;;;;-2.49;91.68;100803.73;107958;275;108370;-56
2023/12/09 03:17:40;;;;;;;62.30;28.10;;;;;;;-2.48;91.60;100806.64;107696;275;155885;-53
2023/12/09 03:20:12;;;;;;;73.90;26.70;;;;;;;-2.50;91.48;100804.98;107931;275;92823;-52
2023/12/09 03:22:49;;;;;;;70.10;27.50;;;;;;;-2.51;91.60;100803.84;107811;275;154679;-56
2023/12/09 03:25:25;;;;;;;66.10;29.00;;;;;;;-2.57;91.52;100796.27;107880;275;120250;-57
2023/12/09 03:28:05;;;;;;;72.30;28.50;;;;;;;-2.59;91.67;100804.37;107947;275;105831;-53
2023/12/09 03:30:43;;;;;;;68.10;27.30;;;;;;;-2.61;91.69;100800.10;107703;274;114585;-53
2023/12/09 03:33:18;;;;;;;72.20;28.40;;;;;;;-2.61;91.79;100797.98;107855;274;95015;-51
2023/12/09 03:36:01;;;;;;;62.00;23.80;;;;;;;-2.60;91.76;100795.75;107645;274;154954;-52
2023/12/09 03:38:44;;;;;;;74.50;28.80;;;;;;;-2.62;91.90;100796.97;107890;275;119554;-55
2023/12/09 03:41:18;;;;;;;67.70;26.40;;;;;;;-2.60;91.98;100792.98;107682;275;155212;-55
2023/12/09 03:43:49;;;;;;;73.10;28.10;;;;;;;-2.55;91.87;100794.61;107824;275;113493;-56
2023/12/09 03:46:24;;;;;;;71.00;28.50;;;;;;;-2.52;91.80;100793.52;107798;275;155585;-56
2023/12/09 03:49:02;;;;;;;66.90;25.90;;;;;;;-2.54;91.81;100794.67;107935;275;97363;-57
2023/12/09 03:51:42;;;;;;;76.40;30.20;;;;;;;-2.58;91.91;100795.27;107885;275;120942;-56
2023/12/09 03:54:17;;;;;;;69.70;26.20;;;;;;;-2.56;91.92;100795.71;107683;275;156490;-56
2023/12/09 03:56:54;;;;;;;74.00;27.90;;;;;;;-2.53;91.82;100795.34;107904;275;114403;-55
2023/12/09 03:59:36;;;;;;;76.50;28.60;;;;;;;-2.51;92.00;100797.14;107700;275;156407;-56
2023/12/09 04:02:15;;;;;;;72.70;26.30;;;;;;;-2.45;91.95;100794.64;107912;275;95603;-57
2023/12/09 04:04:47;;;;;;;73.10;27.50;;;;;;;-2.46;91.91;100798.04;107764;275;155301;-57
2023/12/09 04:07:18;;;;;;;70.50;28.30;;;;;;;-2.44;91.99;100800.02;107823;275;106206;-55
2023/12/09 04:09:49;;;;;;;71.90;29.50;;;;;;;-2.44;91.85;100797.39;107905;275;114658;-53
2023/12/09 04:12:28;;;;;;;65.40;26.30;;;;;;;-2.41;91.89;100801.08;107606;275;156947;-53
2023/12/09 04:15:04;;;;;;;72.60;28.50;;;;;;;-2.54;92.07;100798.58;107948;275;98451;-56
2023/12/09 04:17:40;;;;;;;64.40;27.00;;;;;;;-2.51;92.08;100794.86;107806;275;155415;-53
2023/12/09 04:20:16;;;;;;;75.50;27.70;;;;;;;-2.44;92.11;100794.42;107989;275;105926;-52
2023/12/09 04:22:55;;;;;;;64.50;26.90;;;;;;;-2.40;92.02;100797.14;107750;275;155719;-53
2023/12/09 04:25:31;;;;;;;63.40;25.60;;;;;;;-2.36;92.08;100792.11;107685;275;93307;-56
2023/12/09 04:28:10;;;;;;;60.30;24.80;;;;;;;-2.40;92.05;100792.36;107841;272;97819;-57
2023/12/09 04:30:48;;;;;;;70.60;26.10;;;;;;;-2.43;92.06;100789.40;107493;269;120209;-57
2023/12/09 04:33:19;;;;;;;67.90;27.50;;;;;;;-2.47;92.28;100782.06;107915;274;105133;-55
2023/12/09 04:35:56;;;;;;;69.90;26.80;;;;;;;-2.47;92.15;100775.74;107524;275;155347;-56
2023/12/09 04:38:30;;;;;;;70.20;26.60;;;;;;;-2.47;92.21;100772.53;107864;275;94579;-52
2023/12/09 04:41:04;;;;;;;72.50;27.90;;;;;;;-2.53;92.38;100771.85;107787;275;155171;-52
2023/12/09 04:43:38;;;;;;;65.50;26.70;;;;;;;-2.54;92.40;100764.39;107936;275;119006;-54
2023/12/09 04:46:10;;;;;;;60.70;24.90;;;;;;;-2.51;92.49;100759.60;107763;267;156505;-53
2023/12/09 04:48:46;;;;;;;68.10;27.40;;;;;;;-2.47;92.32;100758.98;107572;273;114320;-57
2023/12/09 04:51:26;;;;;;;65.80;26.20;;;;;;;-2.46;92.43;100752.19;107713;275;95794;-57
2023/12/09 04:54:04;;;;;;;62.80;26.80;;;;;;;-2.49;92.50;100756.45;107566;275;155634;-57
2023/12/09 04:56:43;;;;;;;67.50;27.90;;;;;;;-2.49;92.44;100754.66;107642;275;120785;-57
2023/12/09 04:59:19;;;;;;;70.70;27.10;;;;;;;-2.43;92.49;100757.33;107514;275;155601;-53
2023/12/09 05:01:56;;;;;;;63.60;26.80;;;;;;;-2.41;92.47;100756.29;107636;275;113726;-53
2023/12/09 05:04:27;;;;;;;59.60;24.80;;;;;;;-2.40;92.39;100748.63;107554;275;156373;-53
2023/12/09 05:07:01;;;;;;;68.90;27.50;;;;;;;-2.41;92.38;100742.55;107599;275;96891;-53
2023/12/09 05:09:41;;;;;;;66.60;27.90;;;;;;;-2.43;92.43;100736.15;107720;275;121476;-53
2023/12/09 05:12:19;;;;;;;61.60;25.30;;;;;;;-2.46;92.48;100739.14;106891;275;640636;-54
2023/12/09 05:14:57;;;;;;;56.40;26.50;;;;;;;-2.49;92.58;100735.33;107779;275;114282;-53
2023/12/09 05:17:31;;;;;;;66.10;27.00;;;;;;;-2.52;92.76;100734.64;107574;275;155132;-53
2023/12/09 05:20:09;;;;;;;58.50;23.80;;;;;;;-2.49;92.63;100733.35;107903;275;97040;-56
2023/12/09 05:22:45;;;;;;;58.20;24.10;;;;;;;-2.48;92.51;100734.35;107827;275;156637;-57
2023/12/09 05:25:24;;;;;;;63.10;24.60;;;;;;;-2.51;92.60;100735.45;107877;275;105560;-55
2023/12/09 05:28:02;;;;;;;62.40;26.30;;;;;;;-2.49;92.74;100735.30;107944;275;113915;-57
2023/12/09 05:30:38;;;;;;;66.80;24.50;;;;;;;-2.54;92.74;100738.46;107668;275;154902;-57
2023/12/09 05:33:21;;;;;;;63.60;26.10;;;;;;;-2.56;92.81;100742.80;107980;275;96697;-52
2023/12/09 05:35:59;;;;;;;60.00;26.10;;;;;;;-2.54;92.87;100738.27;107517;275;156234;-53
2023/12/09 05:38:42;;;;;;;64.30;25.40;;;;;;;-2.57;92.88;100739.17;107655;275;105530;-54
2023/12/09 05:41:21;;;;;;;57.90;23.70;;;;;;;-2.57;92.91;100737.73;107504;275;155241;-54
2023/12/09 05:44:00;;;;;;;59.80;26.10;;;;;;;-2.57;92.94;100740.79;107602;275;95505;-53
2023/12/09 05:46:45;;;;;;;54.30;25.10;;;;;;;-2.57;92.91;100735.27;107483;275;156758;-54
2023/12/09 05:49:28;;;;;;;67.40;25.20;;;;;;;-2.61;93.13;100732.71;107592;275;121967;-54
2023/12/09 05:52:04;;;;;;;64.90;26.60;;;;;;;-2.61;92.98;100729.06;107534;275;105971;-53
2023/12/09 05:54:40;;;;;;;62.90;24.60;;;;;;;-2.58;92.95;100724.64;107464;275;114692;-58
2023/12/09 05:57:11;;;;;;;61.90;24.30;;;;;;;-2.54;92.92;100731.06;107719;275;95674;-58
2023/12/09 05:59:45;;;;;;;58.20;24.00;;;;;;;-2.54;93.03;100728.40;107537;275;155776;-54
2023/12/09 06:02:22;;;;;;;67.70;25.50;;;;;;;-2.55;93.06;100725.85;107732;275;121518;-54
2023/12/09 06:05:00;;;;;;;61.10;24.30;;;;;;;-2.54;93.11;100723.65;107551;275;155700;-52
2023/12/09 06:07:37;;;;;;;57.00;24.80;;;;;;;-2.63;93.45;100718.73;107634;275;114553;-55
2023/12/09 06:10:12;;;;;;;58.00;24.00;;;;;;;-2.61;93.29;100717.00;107601;275;156613;-58
2023/12/09 06:12:43;;;;;;;62.90;26.00;;;;;;;-2.62;93.41;100714.15;107685;275;98361;-56
2023/12/09 06:15:15;;;;;;;55.40;25.50;;;;;;;-2.64;93.41;100712.48;107785;275;121275;-55
2023/12/09 06:17:54;;;;;;;57.40;24.90;;;;;;;-2.62;93.40;100708.98;107540;275;155919;-52
2023/12/09 06:20:35;;;;;;;59.40;24.80;;;;;;;-2.66;93.64;100709.60;107698;275;114329;-52
2023/12/09 06:23:12;;;;;;;58.80;24.10;;;;;;;-2.67;93.91;100711.60;107524;275;156222;-53
2023/12/09 06:25:48;;;;;;;60.70;26.50;;;;;;;-2.71;94.13;100704.85;107687;275;97660;-53
2023/12/09 06:28:30;;;;;;;105.50;42.40;;;;;;;-2.70;93.95;100705.44;107605;275;156393;-57
2023/12/09 06:31:06;;;;;;;68.20;29.00;;;;;;;-2.65;93.75;100707.41;107678;275;105587;-58
2023/12/09 06:33:51;;;;;;;65.70;27.60;;;;;;;-2.64;93.72;100707.75;107783;275;115116;-53
2023/12/09 06:36:30;;;;;;;56.30;23.50;;;;;;;-2.63;93.92;100702.92;107440;275;155346;-53
2023/12/09 06:39:03;;;;;;;60.10;25.10;;;;;;;-2.65;93.92;100699.48;107729;275;97435;-58
2023/12/09 06:41:42;;;;;;;51.20;22.60;;;;;;;-2.65;93.96;100702.33;107535;275;155069;-57
2023/12/09 06:44:23;;;;;;;61.10;24.90;;;;;;;-2.63;93.96;100703.78;107737;275;105537;-57
2023/12/09 06:46:56;;;;;;;61.10;25.00;;;;;;;-2.57;93.87;100698.13;107591;275;155150;-57
2023/12/09 06:49:36;;;;;;;57.20;23.60;;;;;;;-2.53;93.86;100696.23;107697;275;95180;-53
2023/12/09 06:52:14;;;;;;;51.90;22.60;;;;;;;-2.54;93.88;100704.06;107799;275;97949;-54
2023/12/09 06:54:45;;;;;;;54.10;24.80;;;;;;;-2.58;94.09;100700.77;107554;275;121286;-53
2023/12/09 06:57:23;;;;;;;62.20;24.40;;;;;;;-2.54;94.07;100694.90;107773;275;103522;-53
2023/12/09 06:59:54;;;;;;;56.60;24.80;;;;;;;-2.52;93.93;100690.89;107539;275;154945;-52
2023/12/09 07:02:32;;;;;;;56.60;25.40;;;;;;;-2.52;93.94;100689.63;107884;275;94334;-53
2023/12/09 07:05:11;;;;;;;54.80;21.80;;;;;;;-2.48;94.03;100697.71;107686;275;156243;-53
2023/12/09 07:07:50;;;;;;;54.90;24.30;;;;;;;-2.50;94.13;100695.33;107769;275;121370;-56
2023/12/09 07:10:23;;;;;;;59.80;25.40;;;;;;;-2.42;93.94;100692.70;107600;275;155493;-56
2023/12/09 07:12:56;;;;;;;60.90;25.40;;;;;;;-2.35;93.81;100688.73;107763;275;114170;-56
2023/12/09 07:15:35;;;;;;;59.50;24.40;;;;;;;-2.32;93.76;100692.73;107922;275;93740;-57
2023/12/09 07:18:07;;;;;;;54.80;22.70;;;;;;;-2.32;93.72;100690.13;107490;274;156552;-53
2023/12/09 07:20:43;;;;;;;61.00;26.00;;;;;;;-2.33;93.80;100691.73;107693;275;120575;-52
2023/12/09 07:23:22;;;;;;;67.30;28.90;;;;;;;-2.34;93.77;100697.13;107582;275;155096;-52
2023/12/09 07:25:59;;;;;;;61.40;24.40;;;;;;;-2.28;93.69;100700.41;107870;274;115003;-53
2023/12/09 07:28:31;;;;;;;60.80;26.80;;;;;;;-2.31;93.84;100698.34;107769;274;156589;-53
2023/12/09 07:31:10;;;;;;;62.40;25.70;;;;;;;-2.26;93.76;100700.80;107882;274;97929;-53
2023/12/09 07:33:48;;;;;;;64.80;27.10;;;;;;;-2.26;93.67;100704.86;107937;274;121936;-57
2023/12/09 07:36:22;;;;;;;59.70;26.10;;;;;;;-2.25;93.69;100710.66;107789;274;155564;-56
2023/12/09 07:39:06;;;;;;;58.80;24.80;;;;;;;-2.29;93.78;100704.92;107869;274;113798;-57
2023/12/09 07:41:44;;;;;;;62.80;25.20;;;;;;;-2.28;93.76;100702.16;107784;274;155341;-57
2023/12/09 07:44:16;;;;;;;60.10;26.90;;;;;;;-2.26;93.89;100701.54;107559;274;99840;-56
2023/12/09 07:46:57;;;;;;;62.90;26.40;;;;;;;-2.23;93.74;100701.13;107801;274;156362;-57
2023/12/09 07:49:30;;;;;;;64.40;26.90;;;;;;;-2.17;93.74;100698.29;107924;274;104233;-56
2023/12/09 07:52:08;;;;;;;62.80;27.10;;;;;;;-2.14;93.74;100691.31;107932;274;113855;-56
2023/12/09 07:54:41;;;;;;;57.80;26.60;;;;;;;-2.12;93.66;100697.27;107749;274;94681;-53
2023/12/09 07:57:21;;;;;;;65.00;26.80;;;;;;;-2.08;93.70;100698.73;107916;274;98618;-53
2023/12/09 08:00:04;;;;;;;60.60;25.80;;;;;;;-2.08;93.73;100699.81;107754;274;154741;-57
2023/12/09 08:02:40;;;;;;;62.60;26.50;;;;;;;-2.05;93.60;100696.90;107911;274;105683;-53
2023/12/09 08:05:13;;;;;;;61.40;25.70;;;;;;;-2.05;93.59;100698.66;107784;274;154965;-53
2023/12/09 08:07:47;;;;;;;64.00;27.70;;;;;;;-2.02;93.69;100698.30;107871;274;96739;-56
2023/12/09 08:10:20;;;;;;;61.80;26.40;;;;;;;-2.02;93.72;100695.67;107823;274;156257;-57
2023/12/09 08:12:58;;;;;;;65.10;27.80;;;;;;;-1.99;93.65;100696.71;107952;274;120936;-59
2023/12/09 08:15:32;;;;;;;64.20;26.80;;;;;;;-1.96;93.59;100694.41;107904;274;104962;-58
2023/12/09 08:18:09;;;;;;;64.10;26.30;;;;;;;-2.02;93.62;100697.13;107803;274;155008;-53
2023/12/09 08:20:49;;;;;;;67.80;26.30;;;;;;;-2.03;93.63;100691.14;107888;274;96082;-52
2023/12/09 08:23:20;;;;;;;71.80;29.30;;;;;;;-2.06;93.69;100682.14;107751;274;154836;-58
2023/12/09 08:25:59;;;;;;;;;;;;;;;-2.08;93.81;100679.88;107955;274;119956;-57
2023/12/09 08:28:34;;;;;;;71.30;27.80;;;;;;;-2.12;93.87;100682.92;107748;274;141276;-57
2023/12/09 08:31:13;;;;;;;77.30;29.40;;;;;;;-2.08;93.79;100683.05;107888;274;114327;-58
2023/12/09 08:33:44;;;;;;;71.20;30.30;;;;;;;-2.06;93.85;100680.91;107716;274;95119;-54
2023/12/09 08:36:19;;;;;;;78.70;33.10;;;;;;;-2.06;93.91;100681.84;107799;274;156434;-54
2023/12/09 08:38:51;;;;;;;;;;;;;;;-2.07;93.97;100680.45;107917;274;120979;-57
2023/12/09 08:41:26;;;;;;;67.10;29.00;;;;;;;-2.04;93.99;100680.26;107786;274;140300;-57
2023/12/09 08:44:03;;;;;;;67.70;28.40;;;;;;;-2.02;94.04;100680.66;107879;274;114764;-54
2023/12/09 08:46:40;;;;;;;78.40;33.10;;;;;;;-1.96;93.93;100678.34;107737;274;156318;-54
2023/12/09 08:49:13;;;;;;;67.20;28.30;;;;;;;-1.95;94.07;100677.73;107901;274;97203;-57
2023/12/09 08:51:48;;;;;;;72.10;32.60;;;;;;;-1.96;94.02;100683.77;107860;274;120577;-57
2023/12/09 08:54:25;;;;;;;79.80;32.00;;;;;;;-1.95;93.98;100679.29;107781;274;156303;-57
2023/12/09 08:56:59;;;;;;;79.30;32.20;;;;;;;-1.88;93.96;100678.13;107897;274;113711;-57
2023/12/09 08:59:39;;;;;;;79.90;32.70;;;;;;;-1.87;94.00;100670.46;107736;274;156118;-57
2023/12/09 09:02:11;;;;;;;86.20;33.80;;;;;;;-1.84;93.94;100661.07;107857;274;97620;-58
2023/12/09 09:04:50;;;;;;;79.30;30.80;;;;;;;-1.78;93.90;100652.38;107509;276;154700;-58
2023/12/09 09:07:28;;;;;;;76.50;32.10;;;;;;;-1.74;93.89;100649.30;107588;275;105706;-58
2023/12/09 09:10:08;;;;;;;78.80;31.80;;;;;;;-1.71;94.04;100647.17;107665;275;113745;-58
2023/12/09 09:12:39;;;;;;;77.60;33.00;;;;;;;-1.68;93.97;100642.35;107560;275;155076;-56
2023/12/09 09:15:13;;;;;;;76.80;31.10;;;;;;;-1.63;93.88;100635.13;107728;275;97293;-57
2023/12/09 09:17:47;;;;;;;82.00;34.80;;;;;;;-1.60;93.77;100634.89;107484;275;156159;-53
2023/12/09 09:20:28;;;;;;;84.80;35.80;;;;;;;-1.58;93.85;100622.36;107666;275;103834;-53
2023/12/09 09:23:02;;;;;;;82.20;33.10;;;;;;;-1.54;93.80;100615.05;107605;275;155234;-56
2023/12/09 09:25:37;;;;;;;86.80;35.70;;;;;;;-1.52;93.79;100618.45;107704;275;96065;-56
2023/12/09 09:28:13;;;;;;;82.90;36.90;;;;;;;-1.45;93.78;100618.84;107655;275;97619;-52
2023/12/09 09:30:46;;;;;;;83.80;34.10;;;;;;;-1.46;93.84;100607.77;107615;275;118684;-52
2023/12/09 09:33:26;;;;;;;82.00;34.00;;;;;;;-1.41;93.82;100605.30;107873;275;104336;-56
2023/12/09 09:36:00;;;;;;;76.10;32.70;;;;;;;-1.30;93.68;100605.56;107851;274;112371;-55
2023/12/09 09:38:32;;;;;;;74.60;30.70;;;;;;;-1.24;93.64;100603.54;107879;268;97375;-56
2023/12/09 09:41:13;;;;;;;72.40;30.90;;;;;;;-1.22;93.62;100605.16;107418;276;156169;-56
2023/12/09 09:44:09;;;;;;;73.80;31.70;;;;;;;-1.20;93.52;100596.84;107479;277;121341;-54
2023/12/09 09:46:42;;;;;;;72.00;30.20;;;;;;;-1.14;93.38;100587.97;107347;277;155115;-51
2023/12/09 09:49:24;;;;;;;74.20;31.80;;;;;;;-1.12;93.36;100584.33;107592;276;114814;-57
2023/12/09 09:52:10;;;;;;;75.10;32.90;;;;;;;-1.12;93.32;100581.09;107609;276;92405;-55
2023/12/09 09:54:49;;;;;;;82.10;34.40;;;;;;;-1.14;93.39;100583.20;107291;277;155092;-52
2023/12/09 09:57:21;;;;;;;76.10;32.40;;;;;;;-1.11;93.37;100582.45;107437;277;121964;-51
2023/12/09 09:59:55;;;;;;;69.60;32.90;;;;;;;-1.13;93.25;100581.91;107312;277;155225;-52
2023/12/09 10:02:39;;;;;;;69.40;29.30;;;;;;;-1.16;93.32;100575.01;107575;276;114610;-51
2023/12/09 10:05:17;;;;;;;81.00;32.90;;;;;;;-1.12;93.30;100574.73;107463;276;154983;-54
2023/12/09 10:07:51;;;;;;;76.60;29.50;;;;;;;-1.02;93.26;100571.38;107452;277;98065;-54
2023/12/09 10:10:27;;;;;;;69.00;30.80;;;;;;;-0.99;93.28;100568.69;107380;276;154920;-54
2023/12/09 10:12:59;;;;;;;77.50;32.00;;;;;;;-0.95;93.21;100564.27;107529;277;104194;-54
2023/12/09 10:15:31;;;;;;;75.50;32.70;;;;;;;-0.93;93.27;100563.59;107475;277;113082;-54
2023/12/09 10:18:05;;;;;;;71.70;30.70;;;;;;;-0.87;93.18;100561.19;107304;277;154926;-54
2023/12/09 10:20:38;;;;;;;72.10;31.60;;;;;;;-0.79;93.08;100554.77;107489;277;96716;-54
2023/12/09 10:23:12;;;;;;;76.10;30.80;;;;;;;-0.79;92.95;100554.45;107304;277;155547;-55
2023/12/09 10:25:48;;;;;;;;;;;;;;;-0.76;92.99;100554.54;107466;277;103178;-58
2023/12/09 10:28:23;;;;;;;75.30;31.80;;;;;;;-0.69;92.93;100549.76;107342;277;141337;-57
2023/12/09 10:30:56;;;;;;;69.00;31.80;;;;;;;-0.64;92.88;100542.63;107518;277;94497;-58
2023/12/09 10:33:30;;;;;;;72.10;31.20;;;;;;;-0.61;92.93;100541.57;107535;277;97271;-56
2023/12/09 10:36:11;;;;;;;67.20;29.10;;;;;;;-0.58;92.88;100541.70;107346;277;154475;-53
2023/12/09 10:38:46;;;;;;;65.40;30.00;;;;;;;-0.56;92.90;100544.09;107466;277;104987;-54
2023/12/09 10:41:25;;;;;;;74.60;31.10;;;;;;;-0.60;92.77;100543.98;107332;277;154566;-53
2023/12/09 10:43:58;;;;;;;72.60;32.70;;;;;;;-0.61;92.71;100532.92;107457;277;95691;-53
2023/12/09 10:46:36;;;;;;;78.10;32.60;;;;;;;-0.53;92.54;100533.89;107377;277;155427;-53
2023/12/09 10:49:20;;;;;;;66.10;28.40;;;;;;;-0.55;92.57;100528.05;107462;277;119931;-55
2023/12/09 10:51:53;;;;;;;71.40;32.10;;;;;;;-0.57;92.54;100530.71;107492;277;104564;-55
2023/12/09 10:54:28;;;;;;;64.80;29.40;;;;;;;-0.57;92.50;100528.18;107265;278;156030;-52
2023/12/09 10:57:01;;;;;;;70.90;32.10;;;;;;;-0.62;92.61;100522.86;107470;278;95875;-52
2023/12/09 10:59:39;;;;;;;74.10;32.10;;;;;;;-0.56;92.56;100523.59;107355;278;154635;-52
2023/12/09 11:02:15;;;;;;;66.70;29.60;;;;;;;-0.53;92.59;100520.60;107482;278;121672;-53
2023/12/09 11:04:48;;;;;;;69.90;31.30;;;;;;;-0.48;92.52;100514.95;107326;278;155189;-54
2023/12/09 11:07:24;;;;;;;74.00;32.10;;;;;;;-0.48;92.44;100511.54;107463;278;114266;-54
2023/12/09 11:10:02;;;;;;;74.40;31.70;;;;;;;-0.49;92.43;100507.58;107407;277;94909;-58
2023/12/09 11:12:37;;;;;;;60.70;28.10;;;;;;;-0.44;92.47;100505.79;107290;277;157249;-58
2023/12/09 11:15:30;;;;;;;72.70;31.30;;;;;;;-0.42;92.36;100507.24;107451;277;121462;-56
2023/12/09 11:18:16;;;;;;;74.00;30.60;;;;;;;-0.37;92.34;100507.92;107298;277;154895;-56
2023/12/09 11:21:00;;;;;;;77.90;31.90;;;;;;;-0.36;92.37;100503.77;107429;277;114167;-57
2023/12/09 11:23:33;;;;;;;72.90;31.40;;;;;;;-0.34;92.37;100496.00;107348;279;154837;-58
2023/12/09 11:26:19;;;;;;;72.20;32.30;;;;;;;-0.30;92.34;100495.34;107541;277;96616;-53
2023/12/09 11:29:03;;;;;;;;;;;;;;;-0.25;92.29;100492.96;107292;278;155118;-54
2023/12/09 11:31:39;;;;;;;69.30;31.20;;;;;;;-0.28;92.41;100486.50;107489;278;105522;-54
2023/12/09 11:34:14;;;;;;;71.80;34.80;;;;;;;-0.24;92.45;100485.11;107418;278;113172;-57
2023/12/09 11:36:51;;;;;;;77.90;40.10;;;;;;;-0.28;92.28;100481.53;107287;278;155595;-57
2023/12/09 11:39:24;;;;;;;81.40;37.90;;;;;;;-0.24;92.25;100488.17;107463;278;97608;-54
2023/12/09 11:41:56;;;;;;;69.20;32.60;;;;;;;-0.22;92.30;100485.50;107331;279;156183;-54
2023/12/09 11:44:28;;;;;;;75.90;34.60;;;;;;;-0.22;92.31;100488.12;107486;278;104435;-52
2023/12/09 11:47:02;;;;;;;67.40;32.30;;;;;;;-0.17;92.21;100485.65;107334;278;155221;-53